Time;durP1;ratioP1;P1;durP2;ratioP2;P2;SDS_P1;SDS_P2;PMS_P1;PMS_P2;Temp;Humidity;BMP_temperature;BMP_pressure;BME280_temperature;BME280_humidity;BME280_pressure;Samples;Min_cycle;Max_cycle;Signal;HPM_P1;HPM_P2
2021/09/08 00:01:42;;;;;;;4.93;4.10;;;20.20;99.90;;;;;;5076301;28;20233;-70
2021/09/08 00:04:09;;;;;;;4.65;4.25;;;20.20;99.90;;;;;;5082717;28;20221;-70
2021/09/08 00:06:36;;;;;;;3.92;3.63;;;20.10;99.90;;;;;;5079499;28;20278;-70
2021/09/08 00:09:05;;;;;;;4.50;4.03;;;20.10;99.90;;;;;;5081144;28;20295;-71
2021/09/08 00:11:32;;;;;;;3.88;3.55;;;20.10;99.90;;;;;;5084206;28;20225;-69
2021/09/08 00:13:59;;;;;;;4.05;3.75;;;20.10;99.90;;;;;;5073263;28;20258;-70
2021/09/08 00:16:26;;;;;;;4.47;4.07;;;20.10;99.90;;;;;;5082108;28;20694;-71
2021/09/08 00:18:53;;;;;;;7.40;4.15;;;20.00;99.90;;;;;;5078877;28;20286;-70
2021/09/08 00:21:20;;;;;;;4.28;3.88;;;19.90;99.90;;;;;;5079225;28;20236;-70
2021/09/08 00:23:47;;;;;;;3.97;3.67;;;19.90;99.90;;;;;;5082041;28;20221;-70
2021/09/08 00:26:16;;;;;;;3.67;3.38;;;19.90;99.90;;;;;;5080459;28;20827;-70
2021/09/08 00:28:43;;;;;;;4.00;3.50;;;20.00;99.90;;;;;;5074765;28;20652;-70
2021/09/08 00:31:10;;;;;;;4.05;3.75;;;20.00;99.90;;;;;;5071597;28;20225;-71
2021/09/08 00:33:37;;;;;;;4.47;4.07;;;20.00;99.90;;;;;;5080526;28;20222;-71
2021/09/08 00:36:04;;;;;;;4.53;4.13;;;20.00;99.90;;;;;;5094619;28;20229;-71
2021/09/08 00:38:31;;;;;;;6.60;5.00;;;20.00;99.90;;;;;;5081704;28;20247;-70
2021/09/08 00:40:58;;;;;;;3.90;3.60;;;19.90;99.90;;;;;;5079979;28;20242;-70
2021/09/08 00:43:27;;;;;;;4.30;3.90;;;19.90;99.90;;;;;;5077099;28;20229;-70
2021/09/08 00:45:55;;;;;;;4.68;3.50;;;19.80;99.90;;;;;;5073645;28;20230;-71
2021/09/08 00:48:23;;;;;;;3.85;3.55;;;19.80;99.90;;;;;;5077622;28;20225;-70
2021/09/08 00:50:51;;;;;;;5.47;4.07;;;19.80;99.90;;;;;;5078300;28;20291;-70
2021/09/08 00:53:20;;;;;;;4.28;3.88;;;19.80;99.90;;;;;;5079984;28;20629;-71
2021/09/08 00:55:48;;;;;;;4.35;3.70;;;19.80;99.90;;;;;;5077525;28;20224;-71
2021/09/08 00:58:15;;;;;;;4.20;3.80;;;19.70;99.90;;;;;;5073348;28;20233;-70
2021/09/08 01:00:44;;;;;;;4.38;3.95;;;19.70;99.90;;;;;;5078830;28;20225;-70
2021/09/08 01:03:11;;;;;;;4.30;3.85;;;19.70;99.90;;;;;;5073354;28;20715;-69
2021/09/08 01:05:38;;;;;;;5.35;4.25;;;19.70;99.90;;;;;;5077859;28;20293;-71
2021/09/08 01:08:07;;;;;;;4.32;3.92;;;19.70;99.90;;;;;;5071967;28;20270;-69
2021/09/08 01:10:34;;;;;;;4.07;3.67;;;19.70;99.90;;;;;;5080931;28;20302;-70
2021/09/08 01:13:01;;;;;;;4.43;4.03;;;19.70;99.90;;;;;;5081438;28;20221;-71
2021/09/08 01:15:28;;;;;;;4.22;3.83;;;19.70;99.90;;;;;;5079054;28;20232;-71
2021/09/08 01:17:56;;;;;;;4.45;3.72;;;19.70;99.90;;;;;;5076385;28;20315;-71
2021/09/08 01:20:24;;;;;;;4.60;4.20;;;19.70;99.90;;;;;;5084991;28;20233;-71
2021/09/08 01:22:54;;;;;;;4.15;3.75;;;19.70;99.90;;;;;;5083297;28;20233;-71
2021/09/08 01:25:23;;;;;;;7.15;4.32;;;19.70;99.90;;;;;;5071881;28;20780;-70
2021/09/08 01:27:52;;;;;;;4.30;3.90;;;19.70;99.90;;;;;;5076485;28;20723;-69
2021/09/08 01:30:22;;;;;;;4.25;3.85;;;19.70;99.90;;;;;;5079623;28;20656;-70
2021/09/08 01:32:49;;;;;;;4.43;4.03;;;19.60;99.90;;;;;;5078418;28;20282;-70
2021/09/08 01:35:17;;;;;;;4.22;3.83;;;19.60;99.90;;;;;;5080148;28;20222;-70
2021/09/08 01:37:46;;;;;;;4.50;4.10;;;19.50;99.90;;;;;;5079144;28;20823;-69
2021/09/08 01:40:16;;;;;;;4.10;3.70;;;19.50;99.90;;;;;;5077498;28;20287;-71
2021/09/08 01:42:43;;;;;;;4.30;4.00;;;19.50;99.90;;;;;;5078047;28;20221;-70
2021/09/08 01:45:13;;;;;;;4.47;4.07;;;19.40;99.90;;;;;;5080095;28;20277;-70
2021/09/08 01:47:40;;;;;;;4.25;3.95;;;19.30;99.90;;;;;;5077411;28;20298;-70
2021/09/08 01:50:09;;;;;;;4.38;3.97;;;19.30;99.90;;;;;;5079592;28;20222;-73
2021/09/08 01:52:37;;;;;;;4.18;3.70;;;19.30;99.90;;;;;;5077820;28;20213;-71
2021/09/08 01:55:05;;;;;;;4.38;3.97;;;19.30;99.90;;;;;;5073222;28;20245;-70
2021/09/08 01:57:33;;;;;;;3.97;3.67;;;19.30;99.90;;;;;;5079629;28;20222;-70
2021/09/08 02:00:00;;;;;;;4.35;3.95;;;19.30;99.90;;;;;;5079132;28;20221;-70
2021/09/08 02:02:28;;;;;;;4.38;3.97;;;19.30;99.90;;;;;;5078458;28;20236;-70
2021/09/08 02:04:55;;;;;;;4.57;4.18;;;19.20;99.90;;;;;;5081119;28;20233;-70
2021/09/08 02:07:22;;;;;;;4.45;4.05;;;19.10;99.90;;;;;;5087888;28;20221;-70
2021/09/08 02:09:49;;;;;;;3.72;3.42;;;19.10;99.90;;;;;;5077665;28;20233;-71
2021/09/08 02:12:16;;;;;;;4.00;3.70;;;19.10;99.90;;;;;;5080415;28;20221;-70
2021/09/08 02:14:45;;;;;;;3.55;3.25;;;19.20;99.90;;;;;;5076382;28;20224;-70
2021/09/08 02:17:12;;;;;;;4.97;4.47;;;19.20;99.90;;;;;;5077729;28;20221;-70
2021/09/08 02:19:39;;;;;;;4.55;4.15;;;19.20;99.90;;;;;;5076226;28;20218;-72
2021/09/08 02:22:07;;;;;;;5.13;4.32;;;19.20;99.90;;;;;;5077984;28;20225;-70
2021/09/08 02:24:34;;;;;;;3.88;3.58;;;19.20;99.90;;;;;;5076505;28;20217;-70
2021/09/08 02:27:01;;;;;;;4.43;4.03;;;19.20;99.90;;;;;;5078083;28;20213;-70
2021/09/08 02:29:28;;;;;;;5.05;4.55;;;19.20;99.90;;;;;;5073591;28;20226;-70
2021/09/08 02:31:56;;;;;;;4.85;4.45;;;19.10;99.90;;;;;;5074995;28;20242;-69
2021/09/08 02:34:23;;;;;;;4.80;4.40;;;19.10;99.90;;;;;;5078240;28;20214;-70
2021/09/08 02:36:51;;;;;;;4.47;4.07;;;19.00;99.90;;;;;;5076035;28;20221;-70
2021/09/08 02:39:18;;;;;;;4.55;4.15;;;19.00;99.90;;;;;;5075099;28;20217;-70
2021/09/08 02:41:45;;;;;;;5.07;4.57;;;19.00;99.90;;;;;;5071195;28;20226;-72
2021/09/08 02:44:12;;;;;;;4.95;4.55;;;19.00;99.90;;;;;;5073003;28;20225;-70
2021/09/08 02:46:39;;;;;;;4.80;4.40;;;19.00;99.90;;;;;;5076213;28;20217;-71
2021/09/08 02:49:08;;;;;;;4.70;4.30;;;18.90;99.90;;;;;;5074124;28;20232;-70
2021/09/08 02:51:35;;;;;;;4.28;3.88;;;18.90;99.90;;;;;;5083338;28;20230;-71
2021/09/08 02:54:02;;;;;;;3.97;3.65;;;18.90;99.90;;;;;;5079767;28;20228;-70
2021/09/08 02:56:29;;;;;;;4.32;3.92;;;18.90;99.90;;;;;;5076711;28;20217;-70
2021/09/08 02:58:56;;;;;;;4.18;3.78;;;19.00;99.90;;;;;;5077198;28;20228;-70
2021/09/08 03:01:23;;;;;;;4.03;3.72;;;19.00;99.90;;;;;;5074022;28;20735;-70
2021/09/08 03:03:50;;;;;;;4.20;3.80;;;19.00;99.90;;;;;;5076203;28;20265;-71
2021/09/08 03:06:18;;;;;;;4.40;4.00;;;19.00;99.90;;;;;;5078306;28;20248;-70
2021/09/08 03:08:45;;;;;;;4.30;3.95;;;19.00;99.90;;;;;;5075763;28;20704;-70
2021/09/08 03:11:12;;;;;;;4.70;4.30;;;19.00;99.90;;;;;;5079115;28;20234;-69
2021/09/08 03:13:39;;;;;;;4.22;3.88;;;19.00;99.90;;;;;;5078462;28;21013;-70
2021/09/08 03:16:06;;;;;;;4.30;3.90;;;19.00;99.90;;;;;;5077245;28;20918;-71
2021/09/08 03:18:33;;;;;;;4.72;4.30;;;19.00;99.90;;;;;;5078934;28;20229;-70
2021/09/08 03:21:00;;;;;;;3.90;3.55;;;19.00;99.90;;;;;;5074819;28;20235;-70
2021/09/08 03:23:29;;;;;;;4.13;3.72;;;19.00;99.90;;;;;;5069411;28;20237;-70
2021/09/08 03:25:56;;;;;;;3.95;3.65;;;18.90;99.90;;;;;;5076970;28;20594;-70
2021/09/08 03:28:23;;;;;;;4.13;3.72;;;18.90;99.90;;;;;;5077083;28;20225;-72
2021/09/08 03:30:50;;;;;;;4.43;4.03;;;18.90;99.90;;;;;;5077368;28;20229;-70
2021/09/08 03:33:17;;;;;;;3.95;3.58;;;18.90;99.90;;;;;;5073619;28;20255;-70
2021/09/08 03:35:44;;;;;;;4.05;3.75;;;18.90;99.90;;;;;;5077863;28;20225;-70
2021/09/08 03:38:11;;;;;;;3.47;3.17;;;18.90;99.90;;;;;;5088324;28;20225;-72
2021/09/08 03:40:40;;;;;;;4.22;3.83;;;18.90;99.90;;;;;;5078321;28;20719;-69
2021/09/08 03:43:07;;;;;;;4.38;4.07;;;18.90;99.90;;;;;;5070707;28;20908;-70
2021/09/08 03:45:34;;;;;;;6.28;4.38;;;18.80;99.90;;;;;;5073119;28;20297;-72
2021/09/08 03:48:03;;;;;;;4.68;4.28;;;18.70;99.90;;;;;;5066683;28;20221;-70
2021/09/08 03:50:30;;;;;;;3.92;3.60;;;18.70;99.90;;;;;;5074576;28;20344;-70
2021/09/08 03:52:57;;;;;;;4.80;4.40;;;18.60;99.90;;;;;;5078601;28;20725;-71
2021/09/08 03:55:24;;;;;;;4.18;3.78;;;18.60;99.90;;;;;;5089760;28;20213;-70
2021/09/08 03:57:52;;;;;;;4.35;3.95;;;18.60;99.90;;;;;;5078228;28;21744;-70
2021/09/08 04:00:20;;;;;;;4.30;3.95;;;18.60;99.90;;;;;;5085526;28;20214;-72
2021/09/08 04:02:47;;;;;;;4.45;4.05;;;18.50;99.90;;;;;;5084004;28;20225;-70
2021/09/08 04:05:14;;;;;;;4.20;3.75;;;18.50;99.90;;;;;;5090592;28;20247;-71
2021/09/08 04:07:41;;;;;;;4.47;3.78;;;18.50;99.90;;;;;;5082047;28;20233;-69
2021/09/08 04:10:09;;;;;;;4.47;3.80;;;18.50;99.90;;;;;;5077207;28;20239;-69
2021/09/08 04:12:36;;;;;;;3.92;3.53;;;18.50;99.90;;;;;;5073197;28;20221;-70
2021/09/08 04:15:05;;;;;;;4.05;3.75;;;18.60;99.90;;;;;;5070579;28;20225;-70
2021/09/08 04:17:32;;;;;;;3.67;3.38;;;18.50;99.90;;;;;;5079028;28;20302;-68
2021/09/08 04:19:59;;;;;;;3.83;3.50;;;18.60;99.90;;;;;;5075245;28;20582;-72
2021/09/08 04:22:26;;;;;;;4.10;3.75;;;18.50;99.90;;;;;;5085827;28;20289;-70
2021/09/08 04:24:53;;;;;;;3.92;3.63;;;18.50;99.90;;;;;;5079607;28;20225;-70
2021/09/08 04:27:20;;;;;;;3.75;3.45;;;18.50;99.90;;;;;;5077251;28;20270;-69
2021/09/08 04:29:47;;;;;;;5.47;4.30;;;18.60;99.90;;;;;;5074775;28;20225;-71
2021/09/08 04:32:16;;;;;;;4.07;3.78;;;18.50;99.90;;;;;;5079498;28;20225;-70
2021/09/08 04:34:43;;;;;;;3.70;3.40;;;18.50;99.90;;;;;;5076581;28;20577;-69
2021/09/08 04:37:10;;;;;;;3.70;3.40;;;18.50;99.90;;;;;;5077717;28;20221;-70
2021/09/08 04:39:37;;;;;;;4.35;3.55;;;18.50;99.90;;;;;;5076122;28;20243;-71
2021/09/08 04:42:04;;;;;;;3.70;3.40;;;18.50;99.90;;;;;;5075334;28;20271;-69
2021/09/08 04:44:31;;;;;;;3.97;3.60;;;18.50;99.90;;;;;;5073682;28;20228;-69
2021/09/08 04:46:58;;;;;;;3.97;3.67;;;18.50;99.90;;;;;;5074173;28;20237;-69
2021/09/08 04:49:27;;;;;;;3.88;3.58;;;18.40;99.90;;;;;;5079446;28;20229;-70
2021/09/08 04:51:54;;;;;;;6.90;3.83;;;18.40;99.90;;;;;;5077369;28;20323;-68
2021/09/08 04:54:21;;;;;;;4.55;3.83;;;18.40;99.90;;;;;;5079767;28;20290;-69
2021/09/08 04:56:48;;;;;;;4.68;4.28;;;18.40;99.90;;;;;;5075089;28;20229;-71
2021/09/08 04:59:15;;;;;;;3.97;3.67;;;18.40;99.90;;;;;;5075588;28;20221;-69
2021/09/08 05:01:42;;;;;;;4.80;4.20;;;18.40;99.90;;;;;;5076964;28;20232;-69
2021/09/08 05:04:09;;;;;;;3.90;3.60;;;18.30;99.90;;;;;;5072198;28;20225;-69
2021/09/08 05:06:37;;;;;;;4.15;3.75;;;18.30;99.90;;;;;;5080482;28;20226;-70
2021/09/08 05:09:04;;;;;;;3.80;3.50;;;18.30;99.90;;;;;;5090017;28;20221;-70
2021/09/08 05:11:31;;;;;;;3.83;3.53;;;18.30;99.90;;;;;;5082796;28;20232;-70
2021/09/08 05:13:59;;;;;;;4.00;3.70;;;18.30;99.90;;;;;;5078542;28;20229;-69
2021/09/08 05:16:27;;;;;;;4.35;4.00;;;18.30;99.90;;;;;;5077113;28;20256;-69
2021/09/08 05:18:54;;;;;;;4.38;3.97;;;18.30;99.90;;;;;;5082051;28;20233;-70
2021/09/08 05:21:21;;;;;;;4.25;3.85;;;18.40;99.90;;;;;;5078736;28;20222;-69
2021/09/08 05:23:49;;;;;;;4.40;4.00;;;18.60;99.90;;;;;;5079286;28;20229;-74
2021/09/08 05:26:16;;;;;;;5.05;4.03;;;18.70;99.90;;;;;;5077429;28;20224;-69
2021/09/08 05:28:43;;;;;;;4.30;3.90;;;19.00;99.90;;;;;;5077997;28;20236;-70
2021/09/08 05:31:10;;;;;;;4.35;3.95;;;19.20;99.90;;;;;;5074103;28;20330;-70
2021/09/08 05:33:37;;;;;;;5.10;4.60;;;19.40;99.90;;;;;;5080278;28;20962;-69
2021/09/08 05:36:05;;;;;;;5.05;4.60;;;19.60;99.90;;;;;;5076721;28;20225;-69
2021/09/08 05:38:32;;;;;;;4.95;4.55;;;19.80;99.90;;;;;;5075867;28;20271;-70
2021/09/08 05:41:02;;;;;;;5.25;4.75;;;19.80;99.90;;;;;;5075423;28;20310;-70
2021/09/08 05:43:29;;;;;;;5.63;5.13;;;19.90;99.90;;;;;;5079323;28;20225;-71
2021/09/08 05:45:56;;;;;;;6.55;5.57;;;19.90;99.90;;;;;;5075237;28;20283;-70
2021/09/08 05:48:23;;;;;;;5.80;5.20;;;20.00;99.90;;;;;;5069735;28;20241;-70
2021/09/08 05:50:50;;;;;;;7.38;6.28;;;19.90;99.90;;;;;;5073156;28;20310;-70
2021/09/08 05:53:17;;;;;;;6.40;5.80;;;19.80;99.90;;;;;;5083021;28;20217;-71
2021/09/08 05:55:44;;;;;;;6.35;5.50;;;19.70;99.90;;;;;;5075808;28;20218;-70
2021/09/08 05:58:13;;;;;;;6.05;5.53;;;19.60;99.90;;;;;;5069961;28;20291;-70
2021/09/08 06:00:40;;;;;;;7.30;5.35;;;19.60;99.90;;;;;;5069503;28;20248;-70
2021/09/08 06:03:07;;;;;;;5.88;5.00;;;19.50;99.90;;;;;;5071962;28;20225;-71
2021/09/08 06:05:34;;;;;;;5.53;5.03;;;19.40;99.90;;;;;;5062150;28;20499;-70
2021/09/08 06:08:01;;;;;;;5.50;5.00;;;19.30;99.90;;;;;;5062539;28;20229;-70
2021/09/08 06:10:28;;;;;;;5.47;4.97;;;19.30;99.90;;;;;;5069409;28;20218;-70
2021/09/08 06:12:55;;;;;;;5.32;4.82;;;19.30;99.90;;;;;;5071827;28;20238;-70
2021/09/08 06:15:24;;;;;;;5.53;5.03;;;19.30;99.90;;;;;;5074841;28;20513;-71
2021/09/08 06:17:51;;;;;;;6.43;5.00;;;19.40;99.90;;;;;;5068852;28;20222;-71
2021/09/08 06:20:18;;;;;;;5.78;5.15;;;19.50;99.90;;;;;;5069068;28;20225;-70
2021/09/08 06:22:45;;;;;;;7.28;5.97;;;19.60;99.90;;;;;;5069346;28;20230;-70
2021/09/08 06:25:13;;;;;;;5.95;5.40;;;19.80;99.90;;;;;;5071280;28;20232;-70
2021/09/08 06:27:40;;;;;;;5.70;5.13;;;19.90;99.90;;;;;;5070150;28;20225;-74
2021/09/08 06:30:08;;;;;;;5.70;5.20;;;19.90;99.90;;;;;;5072981;28;20229;-70
2021/09/08 06:32:36;;;;;;;7.38;5.10;;;19.80;99.90;;;;;;5069168;28;20624;-71
2021/09/08 06:35:04;;;;;;;5.93;5.15;;;19.80;99.90;;;;;;5070714;28;21786;-70
2021/09/08 06:37:31;;;;;;;6.40;5.78;;;19.80;99.90;;;;;;5064132;28;20222;-71
2021/09/08 06:39:58;;;;;;;6.32;5.63;;;19.80;99.90;;;;;;5081534;28;20225;-71
2021/09/08 06:42:25;;;;;;;5.93;5.32;;;19.80;99.90;;;;;;5072744;28;20236;-70
2021/09/08 06:44:54;;;;;;;5.85;5.25;;;19.90;99.90;;;;;;5068859;28;20225;-70
2021/09/08 06:47:21;;;;;;;5.53;5.03;;;19.90;99.90;;;;;;5073758;28;20299;-71
2021/09/08 06:49:51;;;;;;;5.88;5.18;;;19.90;99.90;;;;;;5070934;28;20289;-70
2021/09/08 06:52:19;;;;;;;5.95;5.30;;;19.90;99.90;;;;;;5068230;28;20225;-70
2021/09/08 06:54:47;;;;;;;4.95;4.55;;;20.00;99.90;;;;;;5065236;28;20288;-70
2021/09/08 06:57:14;;;;;;;6.80;5.13;;;19.90;99.90;;;;;;5070971;28;20222;-70
2021/09/08 06:59:41;;;;;;;5.60;4.55;;;19.90;99.90;;;;;;5068490;28;20311;-69
2021/09/08 07:02:09;;;;;;;5.57;5.07;;;20.00;99.90;;;;;;5065383;28;20233;-70
2021/09/08 07:04:36;;;;;;;5.80;5.22;;;20.10;99.90;;;;;;5069857;28;20237;-70
2021/09/08 07:07:05;;;;;;;5.90;5.20;;;20.10;99.90;;;;;;5068590;28;20232;-69
2021/09/08 07:09:32;;;;;;;5.95;5.38;;;20.20;99.90;;;;;;5071257;28;20277;-70
2021/09/08 07:11:59;;;;;;;5.93;4.88;;;20.30;99.90;;;;;;5073398;28;20225;-70
2021/09/08 07:14:26;;;;;;;4.90;4.50;;;20.30;99.90;;;;;;5071972;28;20286;-71
2021/09/08 07:16:53;;;;;;;4.78;4.38;;;20.40;99.90;;;;;;5067436;28;20222;-70
2021/09/08 07:19:20;;;;;;;7.80;4.78;;;20.50;99.90;;;;;;5067125;28;20217;-70
2021/09/08 07:21:47;;;;;;;5.63;5.13;;;20.50;99.90;;;;;;5067205;28;20882;-70
2021/09/08 07:24:16;;;;;;;5.07;4.68;;;20.60;99.90;;;;;;5083103;28;20221;-70
2021/09/08 07:26:43;;;;;;;6.78;5.25;;;20.60;99.90;;;;;;5079789;28;20226;-70
2021/09/08 07:29:10;;;;;;;5.72;5.13;;;20.60;99.90;;;;;;5073691;28;20302;-70
2021/09/08 07:31:37;;;;;;;5.50;5.00;;;20.60;99.90;;;;;;5072234;28;20221;-72
2021/09/08 07:34:04;;;;;;;5.45;4.95;;;20.50;99.90;;;;;;5074334;28;20214;-70
2021/09/08 07:36:31;;;;;;;6.05;5.45;;;20.50;99.90;;;;;;5073552;28;20222;-70
2021/09/08 07:38:59;;;;;;;5.93;5.43;;;20.50;99.90;;;;;;5072615;28;20286;-70
2021/09/08 07:41:27;;;;;;;5.82;5.28;;;20.50;99.90;;;;;;5073816;28;21069;-70
2021/09/08 07:43:54;;;;;;;6.25;5.65;;;20.50;99.90;;;;;;5071518;28;20225;-70
2021/09/08 07:46:21;;;;;;;6.38;5.75;;;20.70;99.90;;;;;;5073419;28;20221;-70
2021/09/08 07:48:48;;;;;;;6.80;6.10;;;21.00;99.90;;;;;;5069309;28;20278;-70
2021/09/08 07:51:15;;;;;;;6.50;5.55;;;21.60;99.90;;;;;;5068000;28;20233;-70
2021/09/08 07:53:42;;;;;;;6.30;5.70;;;22.30;99.90;;;;;;5073180;28;20220;-70
2021/09/08 07:56:10;;;;;;;7.65;6.47;;;22.80;99.90;;;;;;5067123;28;20209;-70
2021/09/08 07:58:38;;;;;;;6.85;6.22;;;23.20;99.90;;;;;;5073161;28;20221;-70
2021/09/08 08:01:05;;;;;;;6.70;6.05;;;23.60;99.90;;;;;;5059654;28;20229;-70
2021/09/08 08:03:32;;;;;;;6.63;5.90;;;23.90;99.90;;;;;;5071519;28;20300;-70
2021/09/08 08:05:59;;;;;;;7.22;6.53;;;24.00;99.90;;;;;;5071774;28;20973;-71
2021/09/08 08:08:26;;;;;;;7.50;6.78;;;24.20;99.90;;;;;;5075440;28;20225;-71
2021/09/08 08:10:53;;;;;;;7.05;6.15;;;24.20;99.90;;;;;;5083197;28;20252;-70
2021/09/08 08:13:20;;;;;;;5.90;5.30;;;24.30;99.90;;;;;;5073648;28;20282;-70
2021/09/08 08:15:49;;;;;;;6.55;5.22;;;24.50;99.90;;;;;;5072041;28;20285;-70
2021/09/08 08:18:16;;;;;;;6.30;5.70;;;24.70;99.90;;;;;;5073346;28;20229;-70
2021/09/08 08:20:43;;;;;;;6.30;5.70;;;24.80;99.90;;;;;;5070898;28;20226;-69
2021/09/08 08:23:10;;;;;;;6.22;5.68;;;24.90;99.90;;;;;;5072130;28;20845;-70
2021/09/08 08:25:38;;;;;;;6.32;5.40;;;24.90;99.90;;;;;;5070110;28;20291;-70
2021/09/08 08:28:05;;;;;;;6.35;5.45;;;24.90;99.90;;;;;;5078792;28;20274;-70
2021/09/08 08:30:33;;;;;;;6.45;5.85;;;24.80;99.90;;;;;;5078704;28;20290;-70
2021/09/08 08:33:04;;;;;;;6.20;5.35;;;24.90;99.90;;;;;;5077767;28;20310;-70
2021/09/08 08:35:31;;;;;;;6.05;5.43;;;25.00;99.90;;;;;;5075951;28;20225;-71
2021/09/08 08:37:58;;;;;;;6.22;5.13;;;25.00;99.90;;;;;;5077446;28;20233;-73
2021/09/08 08:40:27;;;;;;;6.57;5.85;;;25.20;99.90;;;;;;5070321;28;20298;-70
2021/09/08 08:42:54;;;;;;;6.10;5.50;;;25.30;99.90;;;;;;5079460;28;20218;-71
2021/09/08 08:45:21;;;;;;;6.82;5.35;;;25.50;99.90;;;;;;5080663;28;20283;-71
2021/09/08 08:47:48;;;;;;;7.28;5.57;;;25.40;99.90;;;;;;5081500;28;20254;-71
2021/09/08 08:50:18;;;;;;;8.07;5.20;;;25.30;99.90;;;;;;5077247;28;20228;-71
2021/09/08 08:52:46;;;;;;;5.20;4.80;;;25.30;99.90;;;;;;5070774;28;20222;-70
2021/09/08 08:55:13;;;;;;;6.22;5.28;;;25.40;99.90;;;;;;5093471;28;20232;-71
2021/09/08 08:57:40;;;;;;;6.88;5.70;;;25.30;99.90;;;;;;5079315;28;20287;-71
2021/09/08 09:00:09;;;;;;;6.95;5.72;;;25.50;99.90;;;;;;5079062;28;20226;-73
2021/09/08 09:02:36;;;;;;;6.47;5.32;;;25.60;99.90;;;;;;5065496;28;20971;-70
2021/09/08 09:05:06;;;;;;;6.75;5.80;;;25.90;99.90;;;;;;5076194;28;20316;-71
2021/09/08 09:07:37;;;;;;;5.82;5.32;;;26.00;99.90;;;;;;5079347;28;20224;-73
2021/09/08 09:10:06;;;;;;;6.50;5.45;;;26.10;99.90;;;;;;5079722;28;20278;-71
2021/09/08 09:12:35;;;;;;;6.40;5.55;;;26.30;99.90;;;;;;5078335;28;20230;-70
2021/09/08 09:15:05;;;;;;;6.80;6.10;;;26.40;99.90;;;;;;5080224;28;20756;-70
2021/09/08 09:17:34;;;;;;;6.22;5.47;;;26.30;99.90;;;;;;5077287;28;20218;-70
2021/09/08 09:20:04;;;;;;;6.45;5.20;;;26.20;99.90;;;;;;5076716;28;20224;-70
2021/09/08 09:22:40;;;;;;;5.32;4.82;;;26.40;99.90;;;;;;5076931;28;20238;-70
2021/09/08 09:25:08;;;;;;;6.30;5.75;;;26.70;99.90;;;;;;5078521;28;20285;-70
2021/09/08 09:27:37;;;;;;;6.10;5.10;;;27.00;99.90;;;;;;5076408;28;20512;-70
2021/09/08 09:30:09;;;;;;;6.20;5.00;;;27.10;99.90;;;;;;5078436;28;20283;-70
2021/09/08 09:32:38;;;;;;;5.60;5.10;;;26.80;99.90;;;;;;5079490;28;20345;-71
2021/09/08 09:35:07;;;;;;;5.45;4.95;;;26.80;99.90;;;;;;5073184;28;20839;-74
2021/09/08 09:37:35;;;;;;;4.93;4.53;;;26.90;99.90;;;;;;5072371;28;20221;-73
2021/09/08 09:40:06;;;;;;;4.60;4.20;;;26.70;99.90;;;;;;5083692;28;20221;-74
2021/09/08 09:42:34;;;;;;;6.50;5.25;;;27.00;99.90;;;;;;5083998;28;20225;-73
2021/09/08 09:45:03;;;;;;;5.57;5.07;;;27.10;99.90;;;;;;5080840;28;20221;-73
2021/09/08 09:47:34;;;;;;;5.40;4.90;;;26.70;99.90;;;;;;5076438;28;20233;-75
2021/09/08 09:50:01;;;;;;;7.07;4.68;;;27.00;99.90;;;;;;5078319;28;20263;-73
2021/09/08 09:52:28;;;;;;;6.05;5.45;;;27.40;99.90;;;;;;5071129;28;20606;-73
2021/09/08 09:54:57;;;;;;;5.72;5.20;;;27.20;99.90;;;;;;5079052;28;20275;-73
2021/09/08 09:57:26;;;;;;;6.38;4.80;;;27.00;99.90;;;;;;5071835;28;20225;-73
2021/09/08 09:59:54;;;;;;;6.15;5.03;;;26.90;99.90;;;;;;5072390;28;20228;-73
2021/09/08 10:02:21;;;;;;;5.30;4.80;;;26.50;99.90;;;;;;5074379;28;20229;-74
2021/09/08 10:04:49;;;;;;;4.63;4.22;;;26.00;99.90;;;;;;5080378;28;20213;-73
2021/09/08 10:07:19;;;;;;;6.07;5.10;;;26.00;99.90;;;;;;5068885;28;20312;-73
2021/09/08 10:09:51;;;;;;;5.95;5.40;;;26.10;99.90;;;;;;5079252;28;20313;-73
2021/09/08 10:12:23;;;;;;;5.32;4.70;;;26.10;99.90;;;;;;5071806;28;20638;-73
2021/09/08 10:14:53;;;;;;;5.55;5.05;;;26.00;99.90;;;;;;5075074;28;20217;-73
2021/09/08 10:17:20;;;;;;;7.28;5.05;;;25.80;99.90;;;;;;5071023;28;20701;-73
2021/09/08 10:19:49;;;;;;;4.93;4.53;;;25.70;99.90;;;;;;5079826;28;20248;-74
2021/09/08 10:22:17;;;;;;;4.88;4.47;;;25.60;99.90;;;;;;5075063;28;20600;-73
2021/09/08 10:24:45;;;;;;;4.80;4.40;;;25.70;99.90;;;;;;5080105;28;20232;-73
2021/09/08 10:27:31;;;;;;;5.30;4.63;;;25.50;99.90;;;;;;5081967;28;20236;-73
2021/09/08 10:30:01;;;;;;;5.28;4.78;;;25.40;99.90;;;;;;5075797;28;20225;-73
2021/09/08 10:32:29;;;;;;;5.40;4.65;;;25.30;99.90;;;;;;5068751;28;20232;-73
2021/09/08 10:34:56;;;;;;;5.13;4.68;;;25.10;99.90;;;;;;5077271;28;20282;-74
2021/09/08 10:37:23;;;;;;;5.90;4.70;;;24.90;99.90;;;;;;5076207;28;20267;-73
2021/09/08 10:39:50;;;;;;;5.72;4.53;;;24.90;99.90;;;;;;5077709;28;20256;-73
2021/09/08 10:42:18;;;;;;;4.85;4.45;;;25.00;99.90;;;;;;5066656;28;20221;-75
2021/09/08 10:44:48;;;;;;;5.20;4.35;;;24.90;99.90;;;;;;5071375;28;20226;-74
2021/09/08 10:47:35;;;;;;;5.47;4.93;;;24.80;99.90;;;;;;5072365;28;20234;-72
2021/09/08 10:50:03;;;;;;;4.30;3.90;;;25.00;99.90;;;;;;5064165;28;21037;-73
2021/09/08 10:52:46;;;;;;;4.78;4.38;;;25.30;99.90;;;;;;5070506;28;20224;-73
2021/09/08 10:55:23;;;;;;;5.13;4.70;;;25.80;99.90;;;;;;5069393;28;20267;-73
2021/09/08 10:58:08;;;;;;;5.80;5.05;;;26.00;99.90;;;;;;5072997;28;20300;-73
2021/09/08 11:00:40;;;;;;;5.70;5.20;;;25.80;99.90;;;;;;5074174;28;20788;-72
2021/09/08 11:03:27;;;;;;;4.97;4.47;;;25.80;99.90;;;;;;5062600;28;21362;-72
2021/09/08 11:05:56;;;;;;;6.03;5.32;;;26.10;99.90;;;;;;5071853;28;20213;-74
2021/09/08 11:08:26;;;;;;;5.30;4.80;;;26.30;99.90;;;;;;5069837;28;20237;-74
2021/09/08 11:11:06;;;;;;;5.57;5.07;;;26.20;99.90;;;;;;5070933;28;20221;-72
2021/09/08 11:13:33;;;;;;;5.22;4.75;;;26.50;99.90;;;;;;5070915;28;20293;-73
2021/09/08 11:16:01;;;;;;;6.10;5.40;;;26.70;99.90;;;;;;5074575;28;20229;-73
2021/09/08 11:18:38;;;;;;;5.50;4.55;;;26.50;99.90;;;;;;5072318;28;20233;-73
2021/09/08 11:21:08;;;;;;;5.65;5.00;;;26.40;99.90;;;;;;5064838;28;20225;-73
2021/09/08 11:23:36;;;;;;;6.07;5.40;;;26.60;99.90;;;;;;5068960;28;20230;-73
2021/09/08 11:26:07;;;;;;;5.03;4.53;;;26.70;99.90;;;;;;5073368;28;20221;-73
2021/09/08 11:28:35;;;;;;;5.60;5.00;;;26.70;99.90;;;;;;5071761;28;20237;-75
2021/09/08 11:31:12;;;;;;;5.15;4.70;;;26.60;99.90;;;;;;5069004;28;20213;-74
2021/09/08 11:33:40;;;;;;;5.35;4.85;;;26.80;99.90;;;;;;5072504;28;20217;-73
2021/09/08 11:36:16;;;;;;;5.15;4.65;;;26.90;99.90;;;;;;5073216;28;20244;-74
2021/09/08 11:38:46;;;;;;;4.95;4.55;;;27.00;99.90;;;;;;5071805;28;20745;-72
2021/09/08 11:41:15;;;;;;;5.03;4.63;;;27.20;99.90;;;;;;5073724;28;20221;-73
2021/09/08 11:43:44;;;;;;;5.32;4.82;;;27.30;99.90;;;;;;5071572;28;21379;-72
2021/09/08 11:46:13;;;;;;;4.97;4.57;;;27.40;99.90;;;;;;5070523;28;20224;-74
2021/09/08 11:48:41;;;;;;;5.50;5.00;;;27.60;99.90;;;;;;5073344;28;20225;-74
2021/09/08 11:51:10;;;;;;;6.20;4.60;;;27.70;99.90;;;;;;5071566;28;20327;-73
2021/09/08 11:53:37;;;;;;;4.85;4.10;;;27.70;99.90;;;;;;5067933;28;20965;-75
2021/09/08 11:56:09;;;;;;;5.93;4.60;;;27.80;99.90;;;;;;5073772;28;20310;-73
2021/09/08 11:58:37;;;;;;;5.00;4.50;;;28.10;99.90;;;;;;5068003;28;20291;-72
2021/09/08 12:01:07;;;;;;;4.70;4.20;;;28.10;99.90;;;;;;5058199;28;20244;-72
2021/09/08 12:03:38;;;;;;;9.27;4.53;;;28.20;99.90;;;;;;5076106;28;20335;-72
2021/09/08 12:06:15;;;;;;;5.05;4.55;;;28.20;99.90;;;;;;5055653;28;20232;-73
2021/09/08 12:08:53;;;;;;;5.53;4.68;;;28.10;99.90;;;;;;5064967;28;20750;-72
2021/09/08 12:11:38;;;;;;;4.93;4.47;;;28.30;99.90;;;;;;5070858;28;20595;-73
2021/09/08 12:14:24;;;;;;;4.68;3.78;;;28.30;99.90;;;;;;5062684;28;20278;-74
2021/09/08 12:16:53;;;;;;;7.43;4.28;;;28.20;99.90;;;;;;5069777;28;20905;-73
2021/09/08 12:19:26;;;;;;;4.63;4.22;;;28.30;99.90;;;;;;5070062;28;20220;-71
2021/09/08 12:22:04;;;;;;;4.55;4.10;;;28.20;99.90;;;;;;5067071;28;20428;-74
2021/09/08 12:24:33;;;;;;;4.13;3.80;;;28.10;99.70;;;;;;5071669;28;20217;-71
2021/09/08 12:27:00;;;;;;;4.07;3.67;;;28.10;99.90;;;;;;5071119;28;20217;-74
2021/09/08 12:29:28;;;;;;;4.63;4.22;;;28.30;99.90;;;;;;5068123;28;20690;-73
2021/09/08 12:31:57;;;;;;;3.95;3.60;;;28.20;99.30;;;;;;5069698;28;20233;-75
2021/09/08 12:34:25;;;;;;;5.45;4.55;;;28.10;99.90;;;;;;5072097;28;20229;-75
2021/09/08 12:36:52;;;;;;;4.50;4.10;;;27.80;99.80;;;;;;5071444;28;20270;-72
2021/09/08 12:39:22;;;;;;;4.82;4.43;;;27.50;99.90;;;;;;5074038;28;20216;-73
2021/09/08 12:41:55;;;;;;;4.50;4.10;;;27.60;99.90;;;;;;5072209;28;20373;-73
2021/09/08 12:44:32;;;;;;;5.82;4.13;;;27.80;99.90;;;;;;5070881;28;20228;-73
2021/09/08 12:47:11;;;;;;;5.68;4.13;;;28.00;98.40;;;;;;5073052;28;20232;-73
2021/09/08 12:49:40;;;;;;;4.57;4.18;;;28.00;98.20;;;;;;5071077;28;20221;-73
2021/09/08 12:52:11;;;;;;;5.80;4.18;;;27.90;98.20;;;;;;5071130;28;20267;-74
2021/09/08 12:54:39;;;;;;;4.22;3.83;;;28.00;98.70;;;;;;5068678;28;20225;-73